Time;durP1;ratioP1;P1;durP2;ratioP2;P2;SDS_P1;SDS_P2;PMS_P1;PMS_P2;Temp;Humidity;BMP_temperature;BMP_pressure;BME280_temperature;BME280_humidity;BME280_pressure;Samples;Min_cycle;Max_cycle;Signal;HPM_P1;HPM_P2
2022/10/25 00:01:38;;;;;;;24.02;11.43;;;;;;;;;;6244839;22;20360;-78
2022/10/25 00:04:04;;;;;;;21.25;11.15;;;;;;;;;;6219854;23;20031;-77
2022/10/25 00:06:29;;;;;;;27.23;12.20;;;;;;;;;;6243605;23;20074;-78
2022/10/25 00:09:03;;;;;;;23.52;11.73;;;;;;;;;;6245247;22;20008;-78
2022/10/25 00:11:29;;;;;;;24.48;11.63;;;;;;;;;;6244630;23;20003;-78
2022/10/25 00:13:59;;;;;;;27.50;11.50;;;;;;;;;;6243506;23;20001;-77
2022/10/25 00:16:29;;;;;;;28.88;12.02;;;;;;;;;;6218439;23;19997;-78
2022/10/25 00:18:55;;;;;;;20.92;10.82;;;;;;;;;;6243435;23;20007;-78
2022/10/25 00:21:20;;;;;;;28.77;11.27;;;;;;;;;;6244620;22;19996;-78
2022/10/25 00:23:46;;;;;;;26.90;12.13;;;;;;;;;;6244623;22;20043;-79
2022/10/25 00:26:12;;;;;;;23.45;12.05;;;;;;;;;;6244633;22;19996;-78
2022/10/25 00:28:37;;;;;;;24.40;12.52;;;;;;;;;;6244578;22;20016;-79
2022/10/25 00:31:13;;;;;;;21.08;11.18;;;;;;;;;;6217110;23;20134;-79
2022/10/25 00:33:47;;;;;;;26.30;11.60;;;;;;;;;;6243476;22;20011;-79
2022/10/25 00:36:16;;;;;;;22.75;11.48;;;;;;;;;;6244486;22;19996;-77
2022/10/25 00:38:42;;;;;;;23.25;12.20;;;;;;;;;;6244244;22;20066;-77
2022/10/25 00:41:08;;;;;;;27.58;11.80;;;;;;;;;;6243467;23;20000;-78
2022/10/25 00:44:02;;;;;;;24.55;11.23;;;;;;;;;;6244012;22;20062;-78
2022/10/25 00:46:29;;;;;;;22.73;11.40;;;;;;;;;;6244064;23;20008;-78
2022/10/25 00:49:02;;;;;;;21.40;11.30;;;;;;;;;;6245159;22;20121;-79
2022/10/25 00:52:03;;;;;;;21.10;11.55;;;;;;;;;;6243271;23;20000;-78
2022/10/25 00:54:31;;;;;;;25.38;11.18;;;;;;;;;;6239351;23;20103;-79
2022/10/25 00:56:57;;;;;;;27.23;11.50;;;;;;;;;;6266272;22;20018;-77
2022/10/25 00:59:24;;;;;;;28.70;11.65;;;;;;;;;;6248950;22;20007;-76
2022/10/25 01:02:21;;;;;;;21.10;11.65;;;;;;;;;;6248958;22;20461;-77
2022/10/25 01:04:47;;;;;;;26.05;12.30;;;;;;;;;;6248953;22;20004;-79
2022/10/25 01:07:15;;;;;;;20.60;11.52;;;;;;;;;;6248550;22;20280;-77
2022/10/25 01:09:41;;;;;;;21.77;11.50;;;;;;;;;;6248326;22;20011;-78
2022/10/25 01:12:17;;;;;;;25.20;12.02;;;;;;;;;;6248003;22;20373;-78
2022/10/25 01:14:44;;;;;;;26.85;12.60;;;;;;;;;;6275712;22;20054;-78
2022/10/25 01:18:13;;;;;;;25.08;12.38;;;;;;;;;;6248923;22;20003;-78
2022/10/25 01:21:00;;;;;;;22.67;12.18;;;;;;;;;;6269004;22;20010;-79
2022/10/25 01:23:51;;;;;;;25.88;11.77;;;;;;;;;;6279362;22;20011;-79
2022/10/25 01:26:54;;;;;;;25.30;12.30;;;;;;;;;;6230474;22;20078;-77
2022/10/25 01:29:52;;;;;;;29.60;12.05;;;;;;;;;;6250802;22;20012;-77
2022/10/25 01:32:28;;;;;;;27.70;12.52;;;;;;;;;;6154067;23;20001;-78
2022/10/25 01:35:08;;;;;;;31.95;13.18;;;;;;;;;;6105118;23;20437;-78
2022/10/25 01:38:10;;;;;;;29.08;14.05;;;;;;;;;;6229326;22;20445;-78
2022/10/25 01:40:55;;;;;;;21.25;12.38;;;;;;;;;;6128445;23;20313;-78
2022/10/25 01:43:38;;;;;;;29.83;13.25;;;;;;;;;;6129130;23;20005;-79
2022/10/25 01:46:28;;;;;;;26.90;13.10;;;;;;;;;;6155205;23;20060;-78
2022/10/25 01:49:13;;;;;;;25.58;13.32;;;;;;;;;;6197191;22;20056;-79
2022/10/25 01:52:15;;;;;;;23.70;12.85;;;;;;;;;;6200293;22;20011;-79
2022/10/25 01:54:40;;;;;;;25.55;12.20;;;;;;;;;;6205685;22;20094;-78
2022/10/25 01:57:25;;;;;;;23.52;12.82;;;;;;;;;;6277119;22;20389;-78
2022/10/25 02:00:09;;;;;;;24.00;13.02;;;;;;;;;;6252756;22;20439;-80
2022/10/25 02:03:17;;;;;;;29.23;13.02;;;;;;;;;;6250416;22;20014;-77
2022/10/25 02:05:48;;;;;;;27.80;13.00;;;;;;;;;;6276211;22;20007;-79
2022/10/25 02:08:41;;;;;;;25.92;12.55;;;;;;;;;;6277158;22;20012;-79
2022/10/25 02:11:22;;;;;;;24.42;13.00;;;;;;;;;;6276398;22;20023;-78
2022/10/25 02:14:02;;;;;;;27.23;13.98;;;;;;;;;;6277066;22;20003;-78
2022/10/25 02:16:35;;;;;;;21.67;12.88;;;;;;;;;;6275737;22;20004;-78
2022/10/25 02:19:02;;;;;;;36.47;15.40;;;;;;;;;;6165359;23;20379;-79
2022/10/25 02:21:27;;;;;;;25.65;14.60;;;;;;;;;;6214120;23;20005;-78
2022/10/25 02:23:56;;;;;;;25.65;14.88;;;;;;;;;;6214250;23;20362;-79
2022/10/25 02:26:24;;;;;;;26.83;13.82;;;;;;;;;;6189907;23;20008;-76
2022/10/25 02:29:05;;;;;;;28.77;15.23;;;;;;;;;;6189391;23;20001;-78
2022/10/25 02:31:40;;;;;;;25.58;14.43;;;;;;;;;;6215982;23;20001;-78
2022/10/25 02:34:05;;;;;;;33.15;14.27;;;;;;;;;;6189461;23;19996;-77
2022/10/25 02:37:09;;;;;;;30.45;14.55;;;;;;;;;;6214659;23;20059;-78
2022/10/25 02:39:34;;;;;;;28.35;13.70;;;;;;;;;;6189024;23;20004;-78
2022/10/25 02:42:03;;;;;;;28.85;13.55;;;;;;;;;;6214965;23;20066;-77
2022/10/25 02:44:47;;;;;;;27.13;14.35;;;;;;;;;;6213137;23;20007;-78
2022/10/25 02:47:19;;;;;;;24.67;13.02;;;;;;;;;;6188949;23;20000;-78
2022/10/25 02:49:45;;;;;;;25.38;12.00;;;;;;;;;;6189670;23;20005;-77
2022/10/25 02:52:10;;;;;;;25.83;11.10;;;;;;;;;;6215401;23;20458;-78
2022/10/25 02:54:36;;;;;;;22.83;10.55;;;;;;;;;;6214888;23;20076;-78
2022/10/25 02:57:01;;;;;;;25.00;10.95;;;;;;;;;;6215031;23;20004;-78
2022/10/25 03:00:48;;;;;;;18.48;10.27;;;;;;;;;;6213646;23;20095;-78
2022/10/25 03:02:57;;;;;;;23.05;11.13;;;;;;;;;;6202615;23;20027;-77
2022/10/25 03:05:23;;;;;;;19.20;10.93;;;;;;;;;;6215183;23;20305;-77
2022/10/25 03:07:49;;;;;;;18.75;10.55;;;;;;;;;;6214322;23;20527;-78
2022/10/25 03:10:15;;;;;;;21.20;9.70;;;;;;;;;;6213971;23;20466;-78
2022/10/25 03:12:40;;;;;;;18.35;10.68;;;;;;;;;;6215364;23;20004;-77
2022/10/25 03:15:06;;;;;;;14.82;9.43;;;;;;;;;;6215084;23;20005;-78
2022/10/25 03:17:32;;;;;;;21.90;10.75;;;;;;;;;;6215213;23;20009;-77
2022/10/25 03:19:57;;;;;;;16.65;9.73;;;;;;;;;;6214853;23;20340;-78
2022/10/25 03:23:24;;;;;;;;;;;;;;;;;;;;;
2022/10/25 03:25:56;;;;;;;20.00;11.00;;;;;;;;;;6215658;23;20059;-77
2022/10/25 03:28:26;;;;;;;20.92;10.85;;;;;;;;;;6214453;23;20075;-78
2022/10/25 03:30:54;;;;;;;22.52;11.23;;;;;;;;;;6214945;23;20401;-77
2022/10/25 03:33:20;;;;;;;22.88;11.20;;;;;;;;;;6188002;23;20001;-78
2022/10/25 03:35:49;;;;;;;24.25;11.18;;;;;;;;;;6215612;23;20016;-77
2022/10/25 03:38:15;;;;;;;28.25;11.82;;;;;;;;;;6215778;23;20001;-79
2022/10/25 03:40:59;;;;;;;25.08;11.75;;;;;;;;;;6214947;23;20004;-78
2022/10/25 03:43:25;;;;;;;23.08;11.77;;;;;;;;;;6162498;23;20035;-79
2022/10/25 03:45:50;;;;;;;19.45;11.82;;;;;;;;;;6214921;23;20004;-78
2022/10/25 03:48:15;;;;;;;28.17;12.38;;;;;;;;;;6214725;23;20005;-77
2022/10/25 03:50:44;;;;;;;21.35;12.60;;;;;;;;;;6215588;23;20005;-77
2022/10/25 03:53:10;;;;;;;24.63;12.93;;;;;;;;;;6215647;23;20008;-78
2022/10/25 04:01:31;;;;;;;34.53;13.38;;;;;;;;;;6216335;23;20027;-78
2022/10/25 04:03:57;;;;;;;25.00;14.10;;;;;;;;;;6207266;23;20008;-79
2022/10/25 04:24:34;;;;;;;36.03;18.55;;;;;;;;;;6181964;22;20034;-80
2022/10/25 04:27:00;;;;;;;31.88;17.20;;;;;;;;;;6195619;23;20091;-80
2022/10/25 04:29:25;;;;;;;33.67;19.80;;;;;;;;;;6219448;23;20012;-79
2022/10/25 04:31:51;;;;;;;43.90;24.98;;;;;;;;;;6244961;23;20011;-80
2022/10/25 04:34:16;;;;;;;49.88;26.88;;;;;;;;;;6246032;23;20091;-82
2022/10/25 04:36:42;;;;;;;61.85;35.53;;;;;;;;;;6246975;23;20296;-80
2022/10/25 04:39:20;;;;;;;60.33;31.58;;;;;;;;;;6248726;22;20122;-80
2022/10/25 04:41:45;;;;;;;52.47;25.50;;;;;;;;;;6250192;23;20054;-81
2022/10/25 04:44:11;;;;;;;42.75;22.20;;;;;;;;;;6224733;23;20004;-79
2022/10/25 04:46:36;;;;;;;43.50;21.60;;;;;;;;;;6261696;23;20071;-80
2022/10/25 04:49:16;;;;;;;36.55;20.48;;;;;;;;;;6257422;23;20015;-79
2022/10/25 04:51:41;;;;;;;32.72;18.38;;;;;;;;;;6231436;23;20060;-80
2022/10/25 04:54:07;;;;;;;36.10;17.77;;;;;;;;;;6252579;22;19988;-81
2022/10/25 04:56:43;;;;;;;31.50;17.58;;;;;;;;;;6247712;22;20344;-81
2022/10/25 04:59:23;;;;;;;36.28;16.92;;;;;;;;;;6252653;23;20015;-79
2022/10/25 05:01:50;;;;;;;51.30;17.75;;;;;;;;;;6236100;23;20008;-78
2022/10/25 05:04:22;;;;;;;42.90;18.67;;;;;;;;;;6241079;23;20000;-80
2022/10/25 05:06:49;;;;;;;43.15;18.13;;;;;;;;;;6220424;23;20028;-79
2022/10/25 05:09:15;;;;;;;36.85;18.58;;;;;;;;;;6215631;23;20012;-80
2022/10/25 05:11:42;;;;;;;40.80;18.63;;;;;;;;;;6234454;23;20564;-80
2022/10/25 05:14:08;;;;;;;55.30;19.38;;;;;;;;;;6237854;23;20003;-81
2022/10/25 05:16:40;;;;;;;51.90;20.98;;;;;;;;;;6241541;23;20004;-80
2022/10/25 05:19:05;;;;;;;45.55;19.17;;;;;;;;;;6218031;23;20010;-77
2022/10/25 05:21:31;;;;;;;38.40;19.35;;;;;;;;;;6240136;23;20008;-78
2022/10/25 05:23:57;;;;;;;47.47;21.17;;;;;;;;;;6218431;23;20027;-80
2022/10/25 05:26:23;;;;;;;49.38;21.38;;;;;;;;;;6247456;22;20028;-80
2022/10/25 05:28:49;;;;;;;56.20;23.15;;;;;;;;;;6242856;23;20005;-81
2022/10/25 05:31:37;;;;;;;49.30;21.92;;;;;;;;;;6243512;22;20010;-79
2022/10/25 05:34:02;;;;;;;59.55;25.10;;;;;;;;;;6225187;23;20000;-78
2022/10/25 05:37:20;;;;;;;77.45;25.30;;;;;;;;;;6242859;22;20011;-80
2022/10/25 05:39:46;;;;;;;64.13;24.20;;;;;;;;;;6196186;23;20015;-80
2022/10/25 05:42:11;;;;;;;102.55;24.17;;;;;;;;;;6214474;23;20005;-79
2022/10/25 05:45:04;;;;;;;63.45;20.77;;;;;;;;;;6247971;23;20012;-78
2022/10/25 05:47:32;;;;;;;55.35;19.55;;;;;;;;;;6244207;22;20004;-79
2022/10/25 05:50:07;;;;;;;66.68;20.77;;;;;;;;;;6244179;23;20443;-78
2022/10/25 05:52:32;;;;;;;115.80;22.88;;;;;;;;;;6248589;23;20005;-78
2022/10/25 05:55:05;;;;;;;72.57;21.48;;;;;;;;;;6247072;23;20011;-77
2022/10/25 05:57:33;;;;;;;59.70;19.52;;;;;;;;;;6248219;23;20543;-78
2022/10/25 06:00:02;;;;;;;65.03;19.65;;;;;;;;;;6225394;23;20035;-78
2022/10/25 06:02:28;;;;;;;59.13;21.20;;;;;;;;;;6187592;23;20005;-78
2022/10/25 06:05:03;;;;;;;49.05;23.30;;;;;;;;;;6241206;22;20039;-79
2022/10/25 06:07:29;;;;;;;61.92;21.63;;;;;;;;;;6237884;22;20004;-78
2022/10/25 06:09:54;;;;;;;53.40;21.30;;;;;;;;;;6241264;23;20004;-78
2022/10/25 06:12:20;;;;;;;52.17;21.88;;;;;;;;;;6239959;23;20001;-78
2022/10/25 06:14:45;;;;;;;49.63;21.83;;;;;;;;;;6237798;22;20555;-77
2022/10/25 06:17:12;;;;;;;47.90;22.40;;;;;;;;;;6213965;23;20028;-78
2022/10/25 06:19:41;;;;;;;56.97;22.20;;;;;;;;;;6238043;23;20032;-77
2022/10/25 06:22:07;;;;;;;46.30;21.70;;;;;;;;;;6239457;22;20004;-76
2022/10/25 06:24:38;;;;;;;54.63;23.13;;;;;;;;;;6238603;23;20439;-76
2022/10/25 06:27:04;;;;;;;50.33;21.88;;;;;;;;;;6242017;23;20002;-76
2022/10/25 06:29:30;;;;;;;56.88;20.77;;;;;;;;;;6217413;23;20066;-77
2022/10/25 06:31:56;;;;;;;55.90;20.70;;;;;;;;;;6219791;23;20035;-78
2022/10/25 06:34:47;;;;;;;39.47;21.23;;;;;;;;;;6248654;23;20008;-79
2022/10/25 06:37:17;;;;;;;44.25;21.15;;;;;;;;;;6270795;22;20019;-79
2022/10/25 06:39:45;;;;;;;35.10;20.30;;;;;;;;;;6242979;23;20004;-78
2022/10/25 06:42:11;;;;;;;38.20;19.70;;;;;;;;;;6243661;23;20003;-77
2022/10/25 06:44:37;;;;;;;37.05;19.50;;;;;;;;;;6240874;22;20057;-77
2022/10/25 06:47:02;;;;;;;44.40;19.92;;;;;;;;;;6239582;23;20059;-77
2022/10/25 06:49:31;;;;;;;44.55;20.55;;;;;;;;;;6238988;22;20035;-77
2022/10/25 06:51:57;;;;;;;41.58;20.70;;;;;;;;;;6242288;22;20011;-78
2022/10/25 06:54:24;;;;;;;45.15;22.27;;;;;;;;;;6238865;23;20034;-76
2022/10/25 06:56:49;;;;;;;48.65;20.85;;;;;;;;;;6236093;23;20023;-78
2022/10/25 06:59:15;;;;;;;42.65;20.73;;;;;;;;;;6239691;22;20000;-77
2022/10/25 07:01:41;;;;;;;38.97;19.08;;;;;;;;;;6240653;22;20004;-82
2022/10/25 07:04:07;;;;;;;31.45;18.15;;;;;;;;;;6243558;23;20032;-80
2022/10/25 07:06:34;;;;;;;37.20;18.02;;;;;;;;;;6241498;23;20014;-77
2022/10/25 07:09:00;;;;;;;37.92;18.92;;;;;;;;;;6243342;22;20092;-77
2022/10/25 07:11:29;;;;;;;32.63;17.70;;;;;;;;;;6238879;23;20447;-81
2022/10/25 07:13:57;;;;;;;37.83;17.25;;;;;;;;;;6242722;23;20307;-79
2022/10/25 07:16:22;;;;;;;34.22;18.35;;;;;;;;;;6240469;23;20008;-78
2022/10/25 07:18:48;;;;;;;36.03;17.52;;;;;;;;;;6240062;23;20721;-80
2022/10/25 07:21:15;;;;;;;34.35;16.30;;;;;;;;;;6242353;22;20446;-80
2022/10/25 07:23:41;;;;;;;33.42;16.63;;;;;;;;;;6240292;23;20679;-78
2022/10/25 07:26:26;;;;;;;32.78;16.35;;;;;;;;;;6239829;22;20015;-80
2022/10/25 07:28:52;;;;;;;40.00;16.02;;;;;;;;;;6242179;23;20359;-81
2022/10/25 07:31:20;;;;;;;39.50;15.80;;;;;;;;;;6247181;22;20079;-80
2022/10/25 07:33:47;;;;;;;39.63;14.98;;;;;;;;;;6241289;23;20031;-82
2022/10/25 07:36:12;;;;;;;39.10;14.07;;;;;;;;;;6238542;22;20032;-80
2022/10/25 07:38:38;;;;;;;26.48;13.02;;;;;;;;;;6211647;23;20007;-78
2022/10/25 07:41:04;;;;;;;33.13;13.65;;;;;;;;;;6237483;22;20000;-79
2022/10/25 07:43:29;;;;;;;31.00;14.30;;;;;;;;;;6236718;23;20000;-79
2022/10/25 07:45:55;;;;;;;35.95;15.10;;;;;;;;;;6236919;23;20095;-80
2022/10/25 07:48:21;;;;;;;30.98;14.18;;;;;;;;;;6234910;23;20537;-81
2022/10/25 07:50:46;;;;;;;32.90;14.02;;;;;;;;;;6240829;22;20032;-78
2022/10/25 07:53:12;;;;;;;39.35;14.70;;;;;;;;;;6212095;23;20000;-80
2022/10/25 07:55:37;;;;;;;46.33;18.23;;;;;;;;;;6238084;23;20031;-79
2022/10/25 07:58:04;;;;;;;33.08;15.00;;;;;;;;;;6238356;23;20260;-78
2022/10/25 08:00:30;;;;;;;38.78;14.68;;;;;;;;;;6236060;22;20375;-79
2022/10/25 08:02:55;;;;;;;35.78;15.05;;;;;;;;;;6236860;23;20000;-81
2022/10/25 08:05:21;;;;;;;37.08;14.52;;;;;;;;;;6236709;22;20017;-80
2022/10/25 08:07:48;;;;;;;29.83;15.65;;;;;;;;;;6261904;22;20009;-80
2022/10/25 08:10:14;;;;;;;39.15;14.95;;;;;;;;;;6212639;23;20004;-80
2022/10/25 08:12:39;;;;;;;34.50;14.65;;;;;;;;;;6237631;23;20058;-80
2022/10/25 08:15:05;;;;;;;35.00;15.52;;;;;;;;;;6239317;23;20057;-80
2022/10/25 08:17:31;;;;;;;30.80;14.98;;;;;;;;;;6240152;22;20335;-81
2022/10/25 08:19:56;;;;;;;40.13;15.63;;;;;;;;;;6236604;23;20071;-80
2022/10/25 08:22:22;;;;;;;36.95;15.57;;;;;;;;;;6237767;23;20000;-82
2022/10/25 08:24:47;;;;;;;37.85;15.70;;;;;;;;;;6236367;23;19996;-80
2022/10/25 08:27:12;;;;;;;35.20;15.50;;;;;;;;;;6237313;23;20010;-77
2022/10/25 08:30:19;;;;;;;34.40;14.93;;;;;;;;;;6238357;23;20439;-78
2022/10/25 08:32:45;;;;;;;29.77;14.45;;;;;;;;;;6213504;22;20008;-77
2022/10/25 08:35:25;;;;;;;34.65;14.95;;;;;;;;;;6242887;22;20004;-78
2022/10/25 08:37:50;;;;;;;;;;;;;;;;;;6245087;22;20004;-77
2022/10/25 08:40:20;;;;;;;36.38;14.55;;;;;;;;;;6244510;23;19913;-77
2022/10/25 08:43:15;;;;;;;36.92;14.43;;;;;;;;;;6241805;23;20004;-78
2022/10/25 08:45:53;;;;;;;41.65;14.68;;;;;;;;;;6242261;22;20027;-78
2022/10/25 08:48:19;;;;;;;50.80;14.43;;;;;;;;;;6237329;22;20390;-78
2022/10/25 08:50:49;;;;;;;45.17;13.77;;;;;;;;;;6236098;23;20015;-77
2022/10/25 08:53:22;;;;;;;;;;;;;;;;;;6238991;23;20211;-78
2022/10/25 08:55:47;;;;;;;53.03;15.13;;;;;;;;;;6236371;23;19912;-77
2022/10/25 08:58:35;;;;;;;38.03;13.52;;;;;;;;;;6239341;23;20121;-77
2022/10/25 09:01:04;;;;;;;36.40;15.00;;;;;;;;;;6212192;23;20008;-75
2022/10/25 09:03:35;;;;;;;42.38;14.25;;;;;;;;;;6215297;23;20010;-79
2022/10/25 09:06:09;;;;;;;40.65;14.48;;;;;;;;;;6239094;23;20008;-78
2022/10/25 09:09:06;;;;;;;35.38;15.45;;;;;;;;;;6239198;22;20418;-77
2022/10/25 09:11:48;;;;;;;39.47;14.50;;;;;;;;;;6240771;23;20011;-77
2022/10/25 09:14:24;;;;;;;29.52;14.38;;;;;;;;;;6241499;22;20015;-77
2022/10/25 09:16:51;;;;;;;34.33;13.80;;;;;;;;;;6242026;22;20011;-78
2022/10/25 09:19:43;;;;;;;40.92;14.52;;;;;;;;;;6247308;22;20028;-77
2022/10/25 09:22:33;;;;;;;47.17;13.98;;;;;;;;;;6221532;23;20007;-79
2022/10/25 09:24:59;;;;;;;;;;;;;;;;;;6243970;22;20078;-78
2022/10/25 09:27:35;;;;;;;29.23;13.27;;;;;;;;;;6243019;23;19938;-78
2022/10/25 09:30:03;;;;;;;38.35;14.80;;;;;;;;;;6241910;23;20470;-77
2022/10/25 09:32:38;;;;;;;34.83;13.82;;;;;;;;;;6245942;23;20004;-78
2022/10/25 09:35:05;;;;;;;45.88;14.57;;;;;;;;;;6243691;22;20062;-78
2022/10/25 09:37:34;;;;;;;34.72;13.15;;;;;;;;;;6242955;22;20004;-78
2022/10/25 09:40:07;;;;;;;52.42;15.25;;;;;;;;;;6243087;23;20597;-78
2022/10/25 09:42:36;;;;;;;41.03;13.82;;;;;;;;;;6242264;22;20004;-77
2022/10/25 09:45:17;;;;;;;44.63;12.60;;;;;;;;;;6265103;22;20011;-78
2022/10/25 09:47:47;;;;;;;35.35;12.23;;;;;;;;;;6239834;23;20035;-79
2022/10/25 09:50:33;;;;;;;39.78;12.50;;;;;;;;;;6239361;23;20004;-77
2022/10/25 09:53:31;;;;;;;52.30;13.13;;;;;;;;;;6234503;22;20091;-78
2022/10/25 09:55:58;;;;;;;28.58;8.52;;;;;;;;;;6126876;23;20055;-79
2022/10/25 09:58:30;;;;;;;31.42;8.98;;;;;;;;;;6111854;22;20057;-79
2022/10/25 10:04:25;;;;;;;41.55;8.35;;;;;;;;;;6193530;22;20013;-78
2022/10/25 10:07:00;;;;;;;38.35;7.97;;;;;;;;;;6242100;22;19996;-78
2022/10/25 10:09:27;;;;;;;24.48;8.10;;;;;;;;;;6241353;23;20094;-79
2022/10/25 10:11:53;;;;;;;24.67;7.80;;;;;;;;;;6242973;23;19996;-78
2022/10/25 10:14:37;;;;;;;27.02;7.82;;;;;;;;;;6246663;22;20026;-76
2022/10/25 10:17:28;;;;;;;34.70;8.65;;;;;;;;;;6244394;23;20005;-77
2022/10/25 10:20:16;;;;;;;43.83;9.15;;;;;;;;;;6251523;22;20011;-79
2022/10/25 10:26:54;;;;;;;44.15;9.07;;;;;;;;;;6243679;22;20496;-77
2022/10/25 10:29:36;;;;;;;40.38;8.93;;;;;;;;;;6251729;22;20050;-79
2022/10/25 10:32:18;;;;;;;28.55;8.73;;;;;;;;;;6223565;23;20004;-76
2022/10/25 10:34:44;;;;;;;29.98;8.60;;;;;;;;;;6222526;23;19993;-79
2022/10/25 10:37:20;;;;;;;26.85;8.43;;;;;;;;;;6212907;23;20011;-79
2022/10/25 10:39:59;;;;;;;34.90;8.70;;;;;;;;;;6241701;23;20004;-78
2022/10/25 10:42:33;;;;;;;31.42;8.68;;;;;;;;;;6237786;23;20057;-80
2022/10/25 10:45:07;;;;;;;27.88;8.82;;;;;;;;;;6239624;22;20099;-79
2022/10/25 10:47:45;;;;;;;39.97;9.60;;;;;;;;;;6246680;23;20004;-79
2022/10/25 10:50:11;;;;;;;23.13;8.27;;;;;;;;;;6243686;23;20008;-80
2022/10/25 10:52:41;;;;;;;30.02;8.35;;;;;;;;;;6234999;23;20070;-79
2022/10/25 10:55:26;;;;;;;27.60;8.25;;;;;;;;;;6236048;23;20327;-81
2022/10/25 10:57:52;;;;;;;43.35;8.95;;;;;;;;;;6236692;23;20082;-78
2022/10/25 11:00:26;;;;;;;24.90;9.15;;;;;;;;;;6237304;22;20039;-79
2022/10/25 11:02:51;;;;;;;28.20;8.95;;;;;;;;;;6238608;22;20348;-79
2022/10/25 11:05:23;;;;;;;21.88;8.10;;;;;;;;;;6240399;23;20015;-78
2022/10/25 11:07:59;;;;;;;31.27;8.30;;;;;;;;;;6216794;23;20004;-79
2022/10/25 11:10:28;;;;;;;27.67;8.05;;;;;;;;;;6242869;22;20401;-81
2022/10/25 11:13:03;;;;;;;24.15;8.20;;;;;;;;;;6241566;23;20000;-79
2022/10/25 11:15:32;;;;;;;24.83;8.20;;;;;;;;;;6241721;22;20027;-78
2022/10/25 11:18:02;;;;;;;34.92;8.35;;;;;;;;;;6241192;23;20062;-78
2022/10/25 11:20:52;;;;;;;33.40;8.93;;;;;;;;;;6240591;23;20079;-81
2022/10/25 11:24:09;;;;;;;27.45;8.45;;;;;;;;;;6227825;23;20004;-82
2022/10/25 11:26:59;;;;;;;32.08;8.75;;;;;;;;;;6194930;23;20020;-80
2022/10/25 11:30:02;;;;;;;34.42;9.07;;;;;;;;;;6243682;23;20079;-78
2022/10/25 11:32:38;;;;;;;28.33;7.70;;;;;;;;;;6243489;23;20035;-79
2022/10/25 11:35:10;;;;;;;26.42;8.13;;;;;;;;;;6242275;22;20019;-79
2022/10/25 11:37:50;;;;;;;37.75;8.80;;;;;;;;;;6239569;22;20067;-79
2022/10/25 11:40:17;;;;;;;27.27;7.90;;;;;;;;;;6213444;23;20004;-79
2022/10/25 11:42:55;;;;;;;34.13;8.48;;;;;;;;;;6212654;23;19997;-79
2022/10/25 11:45:45;;;;;;;43.17;8.02;;;;;;;;;;6239641;23;20058;-79
2022/10/25 11:48:23;;;;;;;31.23;7.32;;;;;;;;;;6240677;23;20063;-80
2022/10/25 11:51:13;;;;;;;32.72;8.15;;;;;;;;;;6242047;22;20443;-79
2022/10/25 11:53:54;;;;;;;43.60;13.63;;;;;;;;;;6241635;23;20004;-80
2022/10/25 11:56:23;;;;;;;36.58;9.98;;;;;;;;;;6240595;23;20297;-79
2022/10/25 11:59:16;;;;;;;43.35;8.88;;;;;;;;;;6241312;23;20125;-80
2022/10/25 12:02:03;;;;;;;35.42;7.65;;;;;;;;;;6241699;23;20461;-78
2022/10/25 12:04:37;;;;;;;33.28;7.95;;;;;;;;;;6241768;23;20005;-80
2022/10/25 12:07:19;;;;;;;33.63;7.80;;;;;;;;;;6242519;23;20031;-78
2022/10/25 12:09:49;;;;;;;27.25;6.50;;;;;;;;;;6243552;23;20043;-80
2022/10/25 12:12:17;;;;;;;25.35;7.55;;;;;;;;;;6245288;22;20030;-80
2022/10/25 12:14:45;;;;;;;21.38;7.40;;;;;;;;;;6243472;23;20000;-80
2022/10/25 12:17:24;;;;;;;42.90;7.30;;;;;;;;;;6242458;23;20000;-79
2022/10/25 12:19:51;;;;;;;35.10;7.38;;;;;;;;;;6243548;23;20450;-80
2022/10/25 12:22:23;;;;;;;29.27;6.05;;;;;;;;;;6195998;23;20015;-78
2022/10/25 12:25:00;;;;;;;30.73;6.63;;;;;;;;;;6228117;23;20056;-79
2022/10/25 12:27:26;;;;;;;29.90;6.60;;;;;;;;;;6251794;23;20004;-79
2022/10/25 12:30:01;;;;;;;29.58;8.18;;;;;;;;;;6243459;23;20389;-80
2022/10/25 12:32:41;;;;;;;25.08;6.85;;;;;;;;;;6216803;23;20482;-80
2022/10/25 12:35:19;;;;;;;50.63;7.03;;;;;;;;;;6240999;23;20367;-79
2022/10/25 12:37:56;;;;;;;18.70;5.88;;;;;;;;;;6243471;23;20004;-78
2022/10/25 12:40:22;;;;;;;25.15;6.25;;;;;;;;;;6244560;22;20103;-79
2022/10/25 12:43:30;;;;;;;31.30;6.60;;;;;;;;;;6243096;23;20019;-78
2022/10/25 12:46:23;;;;;;;21.95;5.88;;;;;;;;;;6147801;23;20047;-79
2022/10/25 12:49:35;;;;;;;29.13;6.10;;;;;;;;;;6244454;22;20008;-79
2022/10/25 12:52:19;;;;;;;32.05;5.95;;;;;;;;;;6152335;23;20037;-80
2022/10/25 12:55:03;;;;;;;17.35;5.90;;;;;;;;;;6242377;23;20027;-79
2022/10/25 12:57:32;;;;;;;24.45;5.78;;;;;;;;;;6242804;23;20440;-79
2022/10/25 13:00:14;;;;;;;17.38;5.82;;;;;;;;;;6242888;23;20442;-80
2022/10/25 13:03:08;;;;;;;33.50;6.90;;;;;;;;;;6243764;22;20091;-80
2022/10/25 13:05:49;;;;;;;21.42;6.35;;;;;;;;;;6242808;23;20616;-80
2022/10/25 13:08:15;;;;;;;23.48;5.60;;;;;;;;;;6243971;22;20000;-81
2022/10/25 13:10:42;;;;;;;19.00;6.30;;;;;;;;;;6217680;23;20004;-80
2022/10/25 13:13:20;;;;;;;28.20;6.30;;;;;;;;;;6216971;23;20011;-80
2022/10/25 13:15:49;;;;;;;29.80;6.03;;;;;;;;;;6242999;23;20004;-80
2022/10/25 13:18:26;;;;;;;24.75;6.53;;;;;;;;;;6242754;23;20004;-80
2022/10/25 13:20:52;;;;;;;28.75;5.97;;;;;;;;;;6244378;23;20004;-80
2022/10/25 13:23:58;;;;;;;36.42;6.40;;;;;;;;;;6217300;23;20496;-80
2022/10/25 13:26:24;;;;;;;30.40;6.53;;;;;;;;;;6153224;23;20048;-82
2022/10/25 13:28:51;;;;;;;24.80;6.45;;;;;;;;;;6108080;23;20021;-80
2022/10/25 13:31:34;;;;;;;24.50;6.75;;;;;;;;;;6196743;22;20008;-81
2022/10/25 13:34:11;;;;;;;42.85;6.93;;;;;;;;;;6243857;23;20004;-79
2022/10/25 13:36:52;;;;;;;23.65;6.38;;;;;;;;;;6244370;23;20077;-81
2022/10/25 13:39:29;;;;;;;29.17;6.90;;;;;;;;;;6244360;22;20004;-79
2022/10/25 13:41:58;;;;;;;37.05;7.03;;;;;;;;;;6244110;22;20004;-80
2022/10/25 13:44:24;;;;;;;23.42;6.13;;;;;;;;;;6217958;23;20011;-81
2022/10/25 13:46:50;;;;;;;33.53;7.00;;;;;;;;;;6242228;23;19996;-80
2022/10/25 13:49:24;;;;;;;23.80;6.45;;;;;;;;;;6242378;23;20014;-81
2022/10/25 13:51:53;;;;;;;28.27;6.20;;;;;;;;;;6244328;22;20000;-80
2022/10/25 13:54:19;;;;;;;14.63;5.87;;;;;;;;;;6243236;23;20304;-81
2022/10/25 13:56:50;;;;;;;20.08;5.93;;;;;;;;;;6244528;22;20242;-81
2022/10/25 13:59:35;;;;;;;15.40;5.97;;;;;;;;;;6244340;22;20003;-80
2022/10/25 14:02:27;;;;;;;17.17;5.75;;;;;;;;;;6242638;23;20075;-80
2022/10/25 14:04:52;;;;;;;25.73;6.10;;;;;;;;;;6239787;22;20453;-81
2022/10/25 14:07:44;;;;;;;17.75;6.15;;;;;;;;;;6244152;23;20028;-81
2022/10/25 14:10:17;;;;;;;23.77;6.10;;;;;;;;;;6239649;22;20027;-81
2022/10/25 14:12:43;;;;;;;17.98;6.43;;;;;;;;;;6217906;23;20004;-83
2022/10/25 14:15:15;;;;;;;27.83;6.30;;;;;;;;;;6217629;23;20008;-81
2022/10/25 14:17:42;;;;;;;15.75;6.22;;;;;;;;;;6242581;23;20011;-80
2022/10/25 14:20:27;;;;;;;21.52;7.25;;;;;;;;;;6242258;23;20004;-80
2022/10/25 14:23:03;;;;;;;19.42;7.07;;;;;;;;;;6217231;23;20051;-80
2022/10/25 14:25:36;;;;;;;30.15;7.10;;;;;;;;;;6220468;23;20394;-80
2022/10/25 14:28:15;;;;;;;19.85;7.15;;;;;;;;;;6243715;23;20058;-80
2022/10/25 14:30:49;;;;;;;13.50;6.22;;;;;;;;;;6244310;23;20078;-79
2022/10/25 14:33:25;;;;;;;23.92;6.30;;;;;;;;;;6244296;23;20400;-79
2022/10/25 14:36:05;;;;;;;21.23;6.55;;;;;;;;;;6218731;23;20004;-79
2022/10/25 14:38:32;;;;;;;25.42;6.60;;;;;;;;;;6244131;23;19997;-79
2022/10/25 14:40:59;;;;;;;28.70;6.40;;;;;;;;;;6243988;23;20015;-79
2022/10/25 14:43:32;;;;;;;31.08;6.57;;;;;;;;;;6245185;22;20443;-80
2022/10/25 14:46:20;;;;;;;21.42;6.30;;;;;;;;;;6245780;22;20039;-79
2022/10/25 14:48:46;;;;;;;24.73;6.85;;;;;;;;;;6245467;22;20043;-78
2022/10/25 14:51:23;;;;;;;25.35;6.30;;;;;;;;;;6219256;23;20031;-82
2022/10/25 14:54:02;;;;;;;22.08;6.47;;;;;;;;;;6244408;23;20434;-81
2022/10/25 14:56:35;;;;;;;22.30;6.53;;;;;;;;;;6245782;22;20005;-81
2022/10/25 14:59:00;;;;;;;17.95;5.90;;;;;;;;;;6245558;22;20343;-80
2022/10/25 15:01:26;;;;;;;23.23;5.65;;;;;;;;;;6244409;23;20023;-80
2022/10/25 15:03:53;;;;;;;18.83;6.05;;;;;;;;;;6245360;23;20031;-81
2022/10/25 15:06:19;;;;;;;16.52;6.00;;;;;;;;;;6244547;23;20004;-79
2022/10/25 15:08:45;;;;;;;35.42;9.85;;;;;;;;;;6243934;23;20412;-81
2022/10/25 15:11:16;;;;;;;19.33;6.80;;;;;;;;;;6245554;22;20015;-81
2022/10/25 15:13:45;;;;;;;20.17;5.00;;;;;;;;;;6245048;22;20050;-81
2022/10/25 15:16:46;;;;;;;15.60;4.45;;;;;;;;;;6245721;22;20066;-80
2022/10/25 15:19:17;;;;;;;17.17;4.25;;;;;;;;;;6196528;22;20028;-79
2022/10/25 15:21:44;;;;;;;13.95;4.85;;;;;;;;;;6244015;23;20340;-80
2022/10/25 15:24:17;;;;;;;12.63;4.18;;;;;;;;;;6245540;22;20475;-80
2022/10/25 15:27:01;;;;;;;8.82;4.03;;;;;;;;;;6244607;22;20454;-79
2022/10/25 15:29:28;;;;;;;20.02;4.45;;;;;;;;;;6245413;22;20011;-81
2022/10/25 15:31:55;;;;;;;15.27;4.15;;;;;;;;;;6245558;22;20001;-79
2022/10/25 15:34:20;;;;;;;13.35;3.85;;;;;;;;;;6245626;23;20072;-78